sensor_id;sensor_type;location;lat;lon;timestamp;P1;durP1;ratioP1;P2;durP2;ratioP2
60919;SDS011;59039;52.108;19.942;2023-05-01T00:00:39;22.40;;;10.00;;
60919;SDS011;59039;52.108;19.942;2023-05-01T00:03:14;23.10;;;9.40;;
60919;SDS011;59039;52.108;19.942;2023-05-01T00:05:43;16.90;;;8.60;;
60919;SDS011;59039;52.108;19.942;2023-05-01T00:08:32;21.10;;;8.80;;
60919;SDS011;59039;52.108;19.942;2023-05-01T00:11:06;20.40;;;9.20;;
60919;SDS011;59039;52.108;19.942;2023-05-01T00:13:31;24.60;;;8.70;;
60919;SDS011;59039;52.108;19.942;2023-05-01T00:15:59;15.80;;;7.50;;
60919;SDS011;59039;52.108;19.942;2023-05-01T00:18:45;21.70;;;8.50;;
60919;SDS011;59039;52.108;19.942;2023-05-01T00:24:06;19.70;;;8.40;;
60919;SDS011;59039;52.108;19.942;2023-05-01T00:26:43;24.00;;;10.20;;
60919;SDS011;59039;52.108;19.942;2023-05-01T00:29:12;21.00;;;8.70;;
60919;SDS011;59039;52.108;19.942;2023-05-01T00:31:37;18.20;;;8.70;;
60919;SDS011;59039;52.108;19.942;2023-05-01T00:34:03;19.10;;;8.80;;
60919;SDS011;59039;52.108;19.942;2023-05-01T00:36:28;17.80;;;8.70;;
60919;SDS011;59039;52.108;19.942;2023-05-01T00:38:56;20.10;;;8.10;;
60919;SDS011;59039;52.108;19.942;2023-05-01T00:41:25;19.40;;;9.00;;
60919;SDS011;59039;52.108;19.942;2023-05-01T00:43:56;18.80;;;8.70;;
60919;SDS011;59039;52.108;19.942;2023-05-01T00:46:28;23.50;;;9.50;;
60919;SDS011;59039;52.108;19.942;2023-05-01T00:49:04;21.10;;;8.60;;
60919;SDS011;59039;52.108;19.942;2023-05-01T00:51:41;21.20;;;10.60;;
60919;SDS011;59039;52.108;19.942;2023-05-01T00:54:06;18.50;;;9.50;;
60919;SDS011;59039;52.108;19.942;2023-05-01T00:56:32;17.90;;;8.50;;
60919;SDS011;59039;52.108;19.942;2023-05-01T01:04:31;19.20;;;8.50;;
60919;SDS011;59039;52.108;19.942;2023-05-01T01:07:12;19.30;;;8.20;;
60919;SDS011;59039;52.108;19.942;2023-05-01T01:15:52;16.10;;;8.50;;
60919;SDS011;59039;52.108;19.942;2023-05-01T01:27:29;21.20;;;9.30;;
60919;SDS011;59039;52.108;19.942;2023-05-01T01:30:31;16.70;;;8.60;;
60919;SDS011;59039;52.108;19.942;2023-05-01T01:36:11;24.60;;;9.80;;
60919;SDS011;59039;52.108;19.942;2023-05-01T01:38:44;29.30;;;9.70;;
60919;SDS011;59039;52.108;19.942;2023-05-01T01:41:22;18.40;;;9.30;;
60919;SDS011;59039;52.108;19.942;2023-05-01T01:44:13;21.00;;;9.80;;
60919;SDS011;59039;52.108;19.942;2023-05-01T01:46:54;20.70;;;8.20;;
60919;SDS011;59039;52.108;19.942;2023-05-01T01:49:33;21.30;;;9.90;;
60919;SDS011;59039;52.108;19.942;2023-05-01T01:52:04;21.10;;;10.50;;
60919;SDS011;59039;52.108;19.942;2023-05-01T01:54:34;22.80;;;11.10;;
60919;SDS011;59039;52.108;19.942;2023-05-01T01:57:04;23.10;;;10.40;;
60919;SDS011;59039;52.108;19.942;2023-05-01T01:59:41;27.90;;;10.20;;
60919;SDS011;59039;52.108;19.942;2023-05-01T02:02:08;25.10;;;9.90;;
60919;SDS011;59039;52.108;19.942;2023-05-01T02:04:37;24.10;;;10.00;;
60919;SDS011;59039;52.108;19.942;2023-05-01T02:07:04;31.10;;;11.50;;
60919;SDS011;59039;52.108;19.942;2023-05-01T02:09:30;23.50;;;10.90;;
60919;SDS011;59039;52.108;19.942;2023-05-01T02:11:58;22.40;;;10.30;;
60919;SDS011;59039;52.108;19.942;2023-05-01T02:14:35;23.70;;;10.90;;
60919;SDS011;59039;52.108;19.942;2023-05-01T02:17:04;25.30;;;10.60;;
60919;SDS011;59039;52.108;19.942;2023-05-01T02:19:31;25.00;;;11.80;;
60919;SDS011;59039;52.108;19.942;2023-05-01T02:22:02;28.10;;;11.40;;
60919;SDS011;59039;52.108;19.942;2023-05-01T02:24:29;24.20;;;10.50;;
60919;SDS011;59039;52.108;19.942;2023-05-01T02:27:02;27.20;;;11.40;;
60919;SDS011;59039;52.108;19.942;2023-05-01T02:29:32;28.70;;;12.10;;
60919;SDS011;59039;52.108;19.942;2023-05-01T02:31:58;29.60;;;12.80;;
60919;SDS011;59039;52.108;19.942;2023-05-01T02:34:33;28.40;;;12.70;;
60919;SDS011;59039;52.108;19.942;2023-05-01T02:36:59;30.40;;;13.90;;
60919;SDS011;59039;52.108;19.942;2023-05-01T02:39:46;35.10;;;12.60;;
60919;SDS011;59039;52.108;19.942;2023-05-01T02:42:10;27.80;;;12.30;;
60919;SDS011;59039;52.108;19.942;2023-05-01T02:45:22;33.80;;;12.50;;
60919;SDS011;59039;52.108;19.942;2023-05-01T02:47:31;24.50;;;11.80;;
60919;SDS011;59039;52.108;19.942;2023-05-01T02:50:01;27.20;;;11.70;;
60919;SDS011;59039;52.108;19.942;2023-05-01T02:52:28;28.00;;;11.70;;
60919;SDS011;59039;52.108;19.942;2023-05-01T02:55:14;28.70;;;12.70;;
60919;SDS011;59039;52.108;19.942;2023-05-01T02:57:40;24.10;;;12.70;;
60919;SDS011;59039;52.108;19.942;2023-05-01T03:00:26;32.10;;;12.70;;
60919;SDS011;59039;52.108;19.942;2023-05-01T03:02:51;32.80;;;12.80;;
60919;SDS011;59039;52.108;19.942;2023-05-01T03:05:16;30.20;;;12.60;;
60919;SDS011;59039;52.108;19.942;2023-05-01T03:07:42;28.00;;;12.40;;
60919;SDS011;59039;52.108;19.942;2023-05-01T03:10:21;34.90;;;13.00;;
60919;SDS011;59039;52.108;19.942;2023-05-01T03:12:57;30.70;;;12.30;;
60919;SDS011;59039;52.108;19.942;2023-05-01T03:15:23;31.00;;;13.70;;
60919;SDS011;59039;52.108;19.942;2023-05-01T03:18:09;31.10;;;13.40;;
60919;SDS011;59039;52.108;19.942;2023-05-01T03:20:34;33.20;;;13.50;;
60919;SDS011;59039;52.108;19.942;2023-05-01T03:23:22;33.70;;;13.50;;
60919;SDS011;59039;52.108;19.942;2023-05-01T03:25:48;34.00;;;15.10;;
60919;SDS011;59039;52.108;19.942;2023-05-01T03:28:22;33.10;;;14.40;;
60919;SDS011;59039;52.108;19.942;2023-05-01T03:31:02;32.40;;;13.80;;
60919;SDS011;59039;52.108;19.942;2023-05-01T03:33:31;38.10;;;15.10;;
60919;SDS011;59039;52.108;19.942;2023-05-01T03:36:02;32.80;;;13.30;;
60919;SDS011;59039;52.108;19.942;2023-05-01T03:38:50;34.00;;;13.70;;
60919;SDS011;59039;52.108;19.942;2023-05-01T03:41:37;28.70;;;13.20;;
60919;SDS011;59039;52.108;19.942;2023-05-01T03:44:05;29.80;;;12.90;;
60919;SDS011;59039;52.108;19.942;2023-05-01T03:46:46;31.50;;;14.30;;
60919;SDS011;59039;52.108;19.942;2023-05-01T03:49:35;26.70;;;12.30;;
60919;SDS011;59039;52.108;19.942;2023-05-01T03:52:00;29.10;;;12.90;;
60919;SDS011;59039;52.108;19.942;2023-05-01T03:54:45;28.50;;;11.90;;
60919;SDS011;59039;52.108;19.942;2023-05-01T04:00:00;27.10;;;12.00;;
60919;SDS011;59039;52.108;19.942;2023-05-01T04:02:39;23.60;;;12.30;;
60919;SDS011;59039;52.108;19.942;2023-05-01T04:05:10;33.20;;;13.30;;
60919;SDS011;59039;52.108;19.942;2023-05-01T04:07:35;30.60;;;14.60;;
60919;SDS011;59039;52.108;19.942;2023-05-01T04:12:48;32.20;;;14.60;;
60919;SDS011;59039;52.108;19.942;2023-05-01T04:15:36;43.10;;;17.00;;
60919;SDS011;59039;52.108;19.942;2023-05-01T04:18:01;40.50;;;16.40;;
60919;SDS011;59039;52.108;19.942;2023-05-01T04:23:23;33.60;;;14.30;;
60919;SDS011;59039;52.108;19.942;2023-05-01T04:28:48;34.50;;;14.90;;
60919;SDS011;59039;52.108;19.942;2023-05-01T04:31:21;30.10;;;14.40;;
60919;SDS011;59039;52.108;19.942;2023-05-01T04:33:46;31.00;;;14.80;;
60919;SDS011;59039;52.108;19.942;2023-05-01T04:36:31;37.90;;;14.00;;
60919;SDS011;59039;52.108;19.942;2023-05-01T04:39:06;40.60;;;15.10;;
60919;SDS011;59039;52.108;19.942;2023-05-01T04:42:12;28.00;;;13.00;;
60919;SDS011;59039;52.108;19.942;2023-05-01T04:44:37;38.30;;;15.40;;
60919;SDS011;59039;52.108;19.942;2023-05-01T04:47:10;29.50;;;14.80;;
60919;SDS011;59039;52.108;19.942;2023-05-01T04:49:57;32.80;;;14.00;;
60919;SDS011;59039;52.108;19.942;2023-05-01T04:52:21;25.30;;;11.50;;
60919;SDS011;59039;52.108;19.942;2023-05-01T04:54:50;30.40;;;13.50;;
60919;SDS011;59039;52.108;19.942;2023-05-01T04:57:25;32.80;;;15.10;;
60919;SDS011;59039;52.108;19.942;2023-05-01T04:59:50;29.00;;;12.20;;
60919;SDS011;59039;52.108;19.942;2023-05-01T05:05:26;35.80;;;13.10;;
60919;SDS011;59039;52.108;19.942;2023-05-01T05:07:52;33.20;;;14.20;;
60919;SDS011;59039;52.108;19.942;2023-05-01T05:10:26;28.70;;;15.10;;
60919;SDS011;59039;52.108;19.942;2023-05-01T05:12:54;26.00;;;12.20;;
60919;SDS011;59039;52.108;19.942;2023-05-01T05:15:20;31.50;;;12.40;;
60919;SDS011;59039;52.108;19.942;2023-05-01T05:17:48;26.40;;;12.30;;
60919;SDS011;59039;52.108;19.942;2023-05-01T05:20:23;34.40;;;13.30;;
60919;SDS011;59039;52.108;19.942;2023-05-01T05:25:37;26.20;;;11.50;;
60919;SDS011;59039;52.108;19.942;2023-05-01T05:28:11;33.50;;;11.50;;
60919;SDS011;59039;52.108;19.942;2023-05-01T05:31:03;26.00;;;12.80;;
60919;SDS011;59039;52.108;19.942;2023-05-01T05:33:37;22.30;;;11.60;;
60919;SDS011;59039;52.108;19.942;2023-05-01T05:36:03;25.80;;;10.60;;
60919;SDS011;59039;52.108;19.942;2023-05-01T05:38:30;22.10;;;11.30;;
60919;SDS011;59039;52.108;19.942;2023-05-01T05:40:58;24.80;;;11.70;;
60919;SDS011;59039;52.108;19.942;2023-05-01T05:43:29;22.30;;;10.50;;
60919;SDS011;59039;52.108;19.942;2023-05-01T05:48:45;22.60;;;9.90;;
60919;SDS011;59039;52.108;19.942;2023-05-01T05:51:16;27.00;;;11.00;;
60919;SDS011;59039;52.108;19.942;2023-05-01T05:53:43;25.70;;;10.70;;
60919;SDS011;59039;52.108;19.942;2023-05-01T05:56:18;21.20;;;10.40;;
60919;SDS011;59039;52.108;19.942;2023-05-01T05:59:04;17.30;;;9.00;;
60919;SDS011;59039;52.108;19.942;2023-05-01T06:01:29;18.40;;;9.20;;
60919;SDS011;59039;52.108;19.942;2023-05-01T06:04:15;21.90;;;9.50;;
60919;SDS011;59039;52.108;19.942;2023-05-01T06:06:40;23.00;;;8.30;;
60919;SDS011;59039;52.108;19.942;2023-05-01T06:11:51;17.30;;;7.80;;
60919;SDS011;59039;52.108;19.942;2023-05-01T06:14:19;17.40;;;7.80;;
60919;SDS011;59039;52.108;19.942;2023-05-01T06:16:55;17.10;;;8.10;;
60919;SDS011;59039;52.108;19.942;2023-05-01T06:19:23;16.00;;;7.30;;
60919;SDS011;59039;52.108;19.942;2023-05-01T06:22:22;19.30;;;8.30;;
60919;SDS011;59039;52.108;19.942;2023-05-01T06:24:47;15.30;;;8.60;;
60919;SDS011;59039;52.108;19.942;2023-05-01T06:27:15;17.20;;;8.40;;
60919;SDS011;59039;52.108;19.942;2023-05-01T06:32:36;16.30;;;8.00;;
60919;SDS011;59039;52.108;19.942;2023-05-01T06:35:22;22.90;;;9.80;;
60919;SDS011;59039;52.108;19.942;2023-05-01T06:40:33;18.40;;;8.40;;
60919;SDS011;59039;52.108;19.942;2023-05-01T06:42:58;20.90;;;7.40;;
60919;SDS011;59039;52.108;19.942;2023-05-01T06:45:24;15.80;;;7.50;;
60919;SDS011;59039;52.108;19.942;2023-05-01T06:47:55;12.70;;;6.90;;
60919;SDS011;59039;52.108;19.942;2023-05-01T06:50:21;15.50;;;6.80;;
60919;SDS011;59039;52.108;19.942;2023-05-01T06:52:46;18.30;;;7.60;;
60919;SDS011;59039;52.108;19.942;2023-05-01T06:55:16;19.10;;;7.30;;
60919;SDS011;59039;52.108;19.942;2023-05-01T06:57:42;19.00;;;7.40;;
60919;SDS011;59039;52.108;19.942;2023-05-01T07:00:11;12.10;;;6.70;;
60919;SDS011;59039;52.108;19.942;2023-05-01T07:02:37;14.00;;;6.50;;
60919;SDS011;59039;52.108;19.942;2023-05-01T07:05:23;16.00;;;7.50;;
60919;SDS011;59039;52.108;19.942;2023-05-01T07:07:48;18.90;;;7.90;;
60919;SDS011;59039;52.108;19.942;2023-05-01T07:10:21;15.20;;;6.60;;
60919;SDS011;59039;52.108;19.942;2023-05-01T07:12:46;16.40;;;6.70;;
60919;SDS011;59039;52.108;19.942;2023-05-01T07:15:12;13.10;;;6.30;;
60919;SDS011;59039;52.108;19.942;2023-05-01T07:17:40;13.40;;;6.40;;
60919;SDS011;59039;52.108;19.942;2023-05-01T07:20:09;14.30;;;6.60;;
60919;SDS011;59039;52.108;19.942;2023-05-01T07:22:35;15.40;;;6.70;;
60919;SDS011;59039;52.108;19.942;2023-05-01T07:25:00;10.70;;;6.00;;
60919;SDS011;59039;52.108;19.942;2023-05-01T07:27:26;17.00;;;7.70;;
60919;SDS011;59039;52.108;19.942;2023-05-01T07:29:52;15.60;;;6.50;;
60919;SDS011;59039;52.108;19.942;2023-05-01T07:32:19;14.00;;;6.30;;
60919;SDS011;59039;52.108;19.942;2023-05-01T07:35:05;13.10;;;6.60;;
60919;SDS011;59039;52.108;19.942;2023-05-01T07:37:31;12.10;;;6.70;;
60919;SDS011;59039;52.108;19.942;2023-05-01T07:39:56;15.20;;;6.60;;
60919;SDS011;59039;52.108;19.942;2023-05-01T07:42:22;14.30;;;6.10;;
60919;SDS011;59039;52.108;19.942;2023-05-01T07:44:48;15.40;;;6.60;;
60919;SDS011;59039;52.108;19.942;2023-05-01T07:47:14;12.60;;;6.10;;
60919;SDS011;59039;52.108;19.942;2023-05-01T07:49:40;13.20;;;5.90;;
60919;SDS011;59039;52.108;19.942;2023-05-01T07:52:05;12.50;;;5.80;;
60919;SDS011;59039;52.108;19.942;2023-05-01T07:54:30;12.80;;;5.80;;
60919;SDS011;59039;52.108;19.942;2023-05-01T07:56:56;14.20;;;6.40;;
60919;SDS011;59039;52.108;19.942;2023-05-01T07:59:21;14.40;;;6.60;;
60919;SDS011;59039;52.108;19.942;2023-05-01T08:01:46;14.00;;;5.90;;
60919;SDS011;59039;52.108;19.942;2023-05-01T08:04:12;18.40;;;6.30;;
60919;SDS011;59039;52.108;19.942;2023-05-01T08:06:37;13.80;;;5.70;;
60919;SDS011;59039;52.108;19.942;2023-05-01T08:09:02;10.60;;;5.30;;
60919;SDS011;59039;52.108;19.942;2023-05-01T08:11:27;12.40;;;5.20;;
60919;SDS011;59039;52.108;19.942;2023-05-01T08:13:53;11.10;;;4.80;;
60919;SDS011;59039;52.108;19.942;2023-05-01T08:16:18;8.10;;;4.00;;
60919;SDS011;59039;52.108;19.942;2023-05-01T08:18:43;10.40;;;4.60;;
60919;SDS011;59039;52.108;19.942;2023-05-01T08:21:09;15.40;;;4.80;;
60919;SDS011;59039;52.108;19.942;2023-05-01T08:23:34;12.60;;;5.40;;
60919;SDS011;59039;52.108;19.942;2023-05-01T08:25:59;11.00;;;5.60;;
60919;SDS011;59039;52.108;19.942;2023-05-01T08:28:24;10.20;;;4.80;;
60919;SDS011;59039;52.108;19.942;2023-05-01T08:30:50;8.70;;;4.50;;
60919;SDS011;59039;52.108;19.942;2023-05-01T08:33:15;7.80;;;3.40;;
60919;SDS011;59039;52.108;19.942;2023-05-01T08:35:40;6.50;;;3.90;;
60919;SDS011;59039;52.108;19.942;2023-05-01T08:38:06;4.90;;;3.00;;
60919;SDS011;59039;52.108;19.942;2023-05-01T08:40:33;14.00;;;5.00;;
60919;SDS011;59039;52.108;19.942;2023-05-01T08:43:03;9.00;;;4.10;;
60919;SDS011;59039;52.108;19.942;2023-05-01T08:45:31;10.60;;;4.30;;
60919;SDS011;59039;52.108;19.942;2023-05-01T08:47:57;12.10;;;4.40;;
60919;SDS011;59039;52.108;19.942;2023-05-01T08:50:23;11.00;;;5.00;;
60919;SDS011;59039;52.108;19.942;2023-05-01T08:52:50;13.80;;;4.80;;
60919;SDS011;59039;52.108;19.942;2023-05-01T08:55:16;9.40;;;4.40;;
60919;SDS011;59039;52.108;19.942;2023-05-01T08:57:45;9.50;;;5.10;;
60919;SDS011;59039;52.108;19.942;2023-05-01T09:00:18;10.20;;;5.00;;
60919;SDS011;59039;52.108;19.942;2023-05-01T09:02:45;8.70;;;4.70;;
60919;SDS011;59039;52.108;19.942;2023-05-01T09:05:12;9.20;;;4.60;;
60919;SDS011;59039;52.108;19.942;2023-05-01T09:07:38;12.00;;;5.00;;
60919;SDS011;59039;52.108;19.942;2023-05-01T09:10:05;9.10;;;4.70;;
60919;SDS011;59039;52.108;19.942;2023-05-01T09:12:31;10.30;;;4.60;;
60919;SDS011;59039;52.108;19.942;2023-05-01T09:14:57;9.60;;;4.90;;
60919;SDS011;59039;52.108;19.942;2023-05-01T09:17:22;11.30;;;5.30;;
60919;SDS011;59039;52.108;19.942;2023-05-01T09:19:48;9.40;;;4.90;;
60919;SDS011;59039;52.108;19.942;2023-05-01T09:22:15;12.20;;;5.70;;
60919;SDS011;59039;52.108;19.942;2023-05-01T09:24:42;12.00;;;4.80;;
60919;SDS011;59039;52.108;19.942;2023-05-01T09:27:07;13.90;;;4.60;;
60919;SDS011;59039;52.108;19.942;2023-05-01T09:29:43;8.80;;;4.40;;
60919;SDS011;59039;52.108;19.942;2023-05-01T09:32:13;14.60;;;5.10;;
60919;SDS011;59039;52.108;19.942;2023-05-01T09:34:49;11.70;;;4.40;;
60919;SDS011;59039;52.108;19.942;2023-05-01T09:40:14;10.20;;;4.40;;
60919;SDS011;59039;52.108;19.942;2023-05-01T09:42:46;9.70;;;4.40;;
60919;SDS011;59039;52.108;19.942;2023-05-01T09:45:14;8.20;;;3.90;;
60919;SDS011;59039;52.108;19.942;2023-05-01T09:47:42;11.40;;;4.10;;
60919;SDS011;59039;52.108;19.942;2023-05-01T09:50:08;12.70;;;5.20;;
60919;SDS011;59039;52.108;19.942;2023-05-01T09:52:35;10.20;;;4.20;;
60919;SDS011;59039;52.108;19.942;2023-05-01T09:55:10;10.20;;;4.20;;
60919;SDS011;59039;52.108;19.942;2023-05-01T09:57:35;12.00;;;4.00;;
60919;SDS011;59039;52.108;19.942;2023-05-01T10:00:01;10.70;;;4.30;;
60919;SDS011;59039;52.108;19.942;2023-05-01T10:02:27;8.80;;;4.40;;
60919;SDS011;59039;52.108;19.942;2023-05-01T10:04:56;9.90;;;4.50;;
60919;SDS011;59039;52.108;19.942;2023-05-01T10:07:22;7.60;;;4.30;;
60919;SDS011;59039;52.108;19.942;2023-05-01T10:09:48;6.30;;;4.40;;
60919;SDS011;59039;52.108;19.942;2023-05-01T10:12:21;8.00;;;4.50;;
60919;SDS011;59039;52.108;19.942;2023-05-01T10:14:51;9.30;;;4.70;;
60919;SDS011;59039;52.108;19.942;2023-05-01T10:17:21;8.10;;;3.70;;
60919;SDS011;59039;52.108;19.942;2023-05-01T10:19:46;10.90;;;5.10;;
60919;SDS011;59039;52.108;19.942;2023-05-01T10:22:12;7.60;;;4.00;;
60919;SDS011;59039;52.108;19.942;2023-05-01T10:24:37;9.90;;;4.30;;
60919;SDS011;59039;52.108;19.942;2023-05-01T10:27:04;8.60;;;3.80;;
60919;SDS011;59039;52.108;19.942;2023-05-01T10:29:30;8.40;;;4.40;;
60919;SDS011;59039;52.108;19.942;2023-05-01T10:31:55;8.90;;;4.30;;
60919;SDS011;59039;52.108;19.942;2023-05-01T10:34:22;8.90;;;4.20;;
60919;SDS011;59039;52.108;19.942;2023-05-01T10:36:57;8.10;;;3.70;;
60919;SDS011;59039;52.108;19.942;2023-05-01T10:39:33;12.10;;;4.40;;
60919;SDS011;59039;52.108;19.942;2023-05-01T10:44:29;9.20;;;3.90;;
60919;SDS011;59039;52.108;19.942;2023-05-01T10:46:54;9.40;;;4.20;;
60919;SDS011;59039;52.108;19.942;2023-05-01T10:49:20;8.40;;;3.70;;
60919;SDS011;59039;52.108;19.942;2023-05-01T10:52:06;10.50;;;4.40;;
60919;SDS011;59039;52.108;19.942;2023-05-01T10:54:31;24.10;;;11.00;;
60919;SDS011;59039;52.108;19.942;2023-05-01T10:57:00;15.50;;;6.30;;
60919;SDS011;59039;52.108;19.942;2023-05-01T10:59:27;9.00;;;4.40;;
60919;SDS011;59039;52.108;19.942;2023-05-01T11:02:21;7.30;;;4.40;;
60919;SDS011;59039;52.108;19.942;2023-05-01T11:04:47;10.40;;;4.50;;
60919;SDS011;59039;52.108;19.942;2023-05-01T11:07:14;12.20;;;4.10;;
60919;SDS011;59039;52.108;19.942;2023-05-01T11:09:41;10.00;;;4.40;;
60919;SDS011;59039;52.108;19.942;2023-05-01T11:15:23;8.90;;;4.00;;
60919;SDS011;59039;52.108;19.942;2023-05-01T11:17:53;10.70;;;4.60;;
60919;SDS011;59039;52.108;19.942;2023-05-01T11:22:51;8.20;;;5.00;;
60919;SDS011;59039;52.108;19.942;2023-05-01T11:25:19;7.90;;;3.80;;
60919;SDS011;59039;52.108;19.942;2023-05-01T11:27:48;8.20;;;4.50;;
60919;SDS011;59039;52.108;19.942;2023-05-01T11:30:18;9.10;;;4.60;;
60919;SDS011;59039;52.108;19.942;2023-05-01T11:32:44;9.70;;;4.50;;
60919;SDS011;59039;52.108;19.942;2023-05-01T11:35:23;8.10;;;3.90;;
60919;SDS011;59039;52.108;19.942;2023-05-01T11:37:52;7.00;;;3.90;;
60919;SDS011;59039;52.108;19.942;2023-05-01T11:42:44;7.40;;;4.20;;
60919;SDS011;59039;52.108;19.942;2023-05-01T11:45:09;7.60;;;4.00;;
60919;SDS011;59039;52.108;19.942;2023-05-01T11:47:37;12.40;;;5.80;;
60919;SDS011;59039;52.108;19.942;2023-05-01T11:50:04;9.30;;;3.70;;
60919;SDS011;59039;52.108;19.942;2023-05-01T11:52:39;9.20;;;4.00;;
60919;SDS011;59039;52.108;19.942;2023-05-01T11:55:06;11.70;;;5.70;;
60919;SDS011;59039;52.108;19.942;2023-05-01T12:00:30;16.60;;;8.30;;
60919;SDS011;59039;52.108;19.942;2023-05-01T12:03:00;13.80;;;5.80;;
60919;SDS011;59039;52.108;19.942;2023-05-01T12:05:54;8.80;;;5.10;;
60919;SDS011;59039;52.108;19.942;2023-05-01T12:08:20;10.90;;;6.10;;
60919;SDS011;59039;52.108;19.942;2023-05-01T12:13:37;6.60;;;3.50;;
60919;SDS011;59039;52.108;19.942;2023-05-01T12:16:10;7.20;;;4.00;;
60919;SDS011;59039;52.108;19.942;2023-05-01T12:18:43;8.60;;;3.90;;
60919;SDS011;59039;52.108;19.942;2023-05-01T12:21:29;8.10;;;3.60;;
60919;SDS011;59039;52.108;19.942;2023-05-01T12:24:14;7.80;;;3.70;;
60919;SDS011;59039;52.108;19.942;2023-05-01T12:26:48;5.90;;;3.60;;
60919;SDS011;59039;52.108;19.942;2023-05-01T12:29:24;10.30;;;5.70;;
60919;SDS011;59039;52.108;19.942;2023-05-01T12:32:19;9.10;;;4.60;;
60919;SDS011;59039;52.108;19.942;2023-05-01T12:38:22;11.20;;;6.40;;
60919;SDS011;59039;52.108;19.942;2023-05-01T12:40:53;11.50;;;6.40;;
60919;SDS011;59039;52.108;19.942;2023-05-01T12:43:30;12.00;;;4.80;;
60919;SDS011;59039;52.108;19.942;2023-05-01T12:45:57;9.70;;;4.00;;
60919;SDS011;59039;52.108;19.942;2023-05-01T12:48:23;8.70;;;3.80;;
60919;SDS011;59039;52.108;19.942;2023-05-01T12:50:48;13.10;;;5.90;;
60919;SDS011;59039;52.108;19.942;2023-05-01T12:53:14;10.80;;;4.70;;
60919;SDS011;59039;52.108;19.942;2023-05-01T12:55:50;8.30;;;3.70;;
60919;SDS011;59039;52.108;19.942;2023-05-01T12:58:36;9.00;;;4.50;;
60919;SDS011;59039;52.108;19.942;2023-05-01T13:01:04;7.70;;;3.90;;
60919;SDS011;59039;52.108;19.942;2023-05-01T13:03:41;10.70;;;4.30;;
60919;SDS011;59039;52.108;19.942;2023-05-01T13:06:07;10.80;;;4.80;;
60919;SDS011;59039;52.108;19.942;2023-05-01T13:08:36;9.10;;;4.80;;
60919;SDS011;59039;52.108;19.942;2023-05-01T13:11:10;9.90;;;4.10;;
60919;SDS011;59039;52.108;19.942;2023-05-01T13:13:39;7.50;;;4.20;;
60919;SDS011;59039;52.108;19.942;2023-05-01T13:16:07;10.40;;;4.70;;
60919;SDS011;59039;52.108;19.942;2023-05-01T13:21:12;7.40;;;4.00;;
60919;SDS011;59039;52.108;19.942;2023-05-01T13:24:00;9.10;;;4.50;;
60919;SDS011;59039;52.108;19.942;2023-05-01T13:26:26;10.00;;;5.20;;
60919;SDS011;59039;52.108;19.942;2023-05-01T13:28:55;8.60;;;4.20;;
60919;SDS011;59039;52.108;19.942;2023-05-01T13:31:22;8.00;;;4.40;;
60919;SDS011;59039;52.108;19.942;2023-05-01T13:33:51;9.50;;;5.70;;
60919;SDS011;59039;52.108;19.942;2023-05-01T13:36:18;7.90;;;4.20;;
60919;SDS011;59039;52.108;19.942;2023-05-01T13:38:51;7.90;;;4.60;;
60919;SDS011;59039;52.108;19.942;2023-05-01T13:41:21;10.00;;;4.60;;
60919;SDS011;59039;52.108;19.942;2023-05-01T13:43:50;11.40;;;4.50;;
60919;SDS011;59039;52.108;19.942;2023-05-01T13:46:17;7.90;;;4.40;;
60919;SDS011;59039;52.108;19.942;2023-05-01T13:48:44;10.60;;;4.40;;
60919;SDS011;59039;52.108;19.942;2023-05-01T13:51:10;12.50;;;4.40;;
60919;SDS011;59039;52.108;19.942;2023-05-01T13:53:37;9.50;;;4.60;;
60919;SDS011;59039;52.108;19.942;2023-05-01T13:56:03;16.40;;;5.20;;
60919;SDS011;59039;52.108;19.942;2023-05-01T13:58:29;8.30;;;4.20;;
60919;SDS011;59039;52.108;19.942;2023-05-01T14:00:56;8.70;;;4.20;;
60919;SDS011;59039;52.108;19.942;2023-05-01T14:03:21;8.90;;;4.40;;
60919;SDS011;59039;52.108;19.942;2023-05-01T14:05:47;13.40;;;4.70;;
60919;SDS011;59039;52.108;19.942;2023-05-01T14:08:13;10.30;;;4.40;;
60919;SDS011;59039;52.108;19.942;2023-05-01T14:10:38;8.00;;;4.40;;
60919;SDS011;59039;52.108;19.942;2023-05-01T14:13:03;8.50;;;4.40;;
60919;SDS011;59039;52.108;19.942;2023-05-01T14:15:34;10.20;;;3.80;;
60919;SDS011;59039;52.108;19.942;2023-05-01T14:18:06;9.00;;;4.10;;
60919;SDS011;59039;52.108;19.942;2023-05-01T14:20:31;13.60;;;4.50;;
60919;SDS011;59039;52.108;19.942;2023-05-01T14:22:57;8.80;;;4.20;;
60919;SDS011;59039;52.108;19.942;2023-05-01T14:25:27;10.60;;;4.40;;
60919;SDS011;59039;52.108;19.942;2023-05-01T14:27:54;10.40;;;4.10;;
60919;SDS011;59039;52.108;19.942;2023-05-01T14:32:55;9.60;;;3.90;;
60919;SDS011;59039;52.108;19.942;2023-05-01T14:35:26;6.50;;;3.50;;
60919;SDS011;59039;52.108;19.942;2023-05-01T14:37:51;7.00;;;3.70;;
60919;SDS011;59039;52.108;19.942;2023-05-01T14:40:27;9.00;;;4.00;;
60919;SDS011;59039;52.108;19.942;2023-05-01T14:42:56;7.50;;;3.80;;
60919;SDS011;59039;52.108;19.942;2023-05-01T14:45:21;9.20;;;4.50;;
60919;SDS011;59039;52.108;19.942;2023-05-01T14:47:47;7.20;;;3.60;;
60919;SDS011;59039;52.108;19.942;2023-05-01T14:50:21;7.70;;;3.50;;
60919;SDS011;59039;52.108;19.942;2023-05-01T14:52:54;7.80;;;3.40;;
60919;SDS011;59039;52.108;19.942;2023-05-01T14:55:24;9.20;;;3.90;;
60919;SDS011;59039;52.108;19.942;2023-05-01T14:57:54;13.90;;;4.30;;
60919;SDS011;59039;52.108;19.942;2023-05-01T15:00:21;8.50;;;3.50;;
60919;SDS011;59039;52.108;19.942;2023-05-01T15:02:47;5.80;;;3.50;;
60919;SDS011;59039;52.108;19.942;2023-05-01T15:05:12;9.10;;;3.70;;
60919;SDS011;59039;52.108;19.942;2023-05-01T15:07:38;9.80;;;3.50;;
60919;SDS011;59039;52.108;19.942;2023-05-01T15:10:04;8.20;;;3.40;;
60919;SDS011;59039;52.108;19.942;2023-05-01T15:12:29;9.20;;;3.80;;
60919;SDS011;59039;52.108;19.942;2023-05-01T15:14:55;6.90;;;4.10;;
60919;SDS011;59039;52.108;19.942;2023-05-01T15:17:20;6.20;;;3.60;;
60919;SDS011;59039;52.108;19.942;2023-05-01T15:19:45;9.50;;;3.90;;
60919;SDS011;59039;52.108;19.942;2023-05-01T15:22:10;6.90;;;3.60;;
60919;SDS011;59039;52.108;19.942;2023-05-01T15:24:36;12.50;;;3.70;;
60919;SDS011;59039;52.108;19.942;2023-05-01T15:29:33;7.10;;;3.20;;
60919;SDS011;59039;52.108;19.942;2023-05-01T15:31:59;6.30;;;3.30;;
60919;SDS011;59039;52.108;19.942;2023-05-01T15:34:24;8.60;;;5.90;;
60919;SDS011;59039;52.108;19.942;2023-05-01T15:36:49;12.00;;;6.40;;
60919;SDS011;59039;52.108;19.942;2023-05-01T15:39:15;18.90;;;12.20;;
60919;SDS011;59039;52.108;19.942;2023-05-01T15:41:41;11.60;;;6.30;;
60919;SDS011;59039;52.108;19.942;2023-05-01T15:44:07;9.90;;;4.90;;
60919;SDS011;59039;52.108;19.942;2023-05-01T15:46:32;9.60;;;4.40;;
60919;SDS011;59039;52.108;19.942;2023-05-01T15:48:58;60.80;;;24.30;;
60919;SDS011;59039;52.108;19.942;2023-05-01T15:51:23;16.20;;;6.70;;
60919;SDS011;59039;52.108;19.942;2023-05-01T15:53:48;7.30;;;3.70;;
60919;SDS011;59039;52.108;19.942;2023-05-01T15:56:22;8.10;;;4.50;;
60919;SDS011;59039;52.108;19.942;2023-05-01T15:58:48;13.80;;;5.10;;
60919;SDS011;59039;52.108;19.942;2023-05-01T16:01:14;10.20;;;4.00;;
60919;SDS011;59039;52.108;19.942;2023-05-01T16:03:42;8.70;;;3.70;;